sensor_id;sensor_type;location;lat;lon;timestamp;P1;durP1;ratioP1;P2;durP2;ratioP2
41631;SDS011;37452;51.938;4.624;2023-07-09T00:02:01;12.13;;;7.00;;
41631;SDS011;37452;51.938;4.624;2023-07-09T00:04:27;13.65;;;6.72;;
41631;SDS011;37452;51.938;4.624;2023-07-09T00:06:54;14.02;;;6.80;;
41631;SDS011;37452;51.938;4.624;2023-07-09T00:09:22;11.13;;;6.00;;
41631;SDS011;37452;51.938;4.624;2023-07-09T00:11:49;11.10;;;6.40;;
41631;SDS011;37452;51.938;4.624;2023-07-09T00:14:15;13.25;;;7.25;;
41631;SDS011;37452;51.938;4.624;2023-07-09T00:16:43;11.13;;;6.90;;
41631;SDS011;37452;51.938;4.624;2023-07-09T00:19:15;11.15;;;6.07;;
41631;SDS011;37452;51.938;4.624;2023-07-09T00:21:43;11.80;;;6.57;;
41631;SDS011;37452;51.938;4.624;2023-07-09T00:24:10;13.40;;;7.15;;
41631;SDS011;37452;51.938;4.624;2023-07-09T00:26:38;15.82;;;7.90;;
41631;SDS011;37452;51.938;4.624;2023-07-09T00:29:11;15.50;;;7.38;;
41631;SDS011;37452;51.938;4.624;2023-07-09T00:31:37;11.00;;;6.65;;
41631;SDS011;37452;51.938;4.624;2023-07-09T00:34:08;13.80;;;7.63;;
41631;SDS011;37452;51.938;4.624;2023-07-09T00:36:33;14.27;;;7.30;;
41631;SDS011;37452;51.938;4.624;2023-07-09T00:38:59;15.07;;;8.88;;
41631;SDS011;37452;51.938;4.624;2023-07-09T00:41:31;13.55;;;7.10;;
41631;SDS011;37452;51.938;4.624;2023-07-09T00:43:58;11.43;;;6.43;;
41631;SDS011;37452;51.938;4.624;2023-07-09T00:49:15;11.88;;;6.78;;
41631;SDS011;37452;51.938;4.624;2023-07-09T00:51:51;12.18;;;6.60;;
41631;SDS011;37452;51.938;4.624;2023-07-09T00:54:26;12.35;;;7.20;;
41631;SDS011;37452;51.938;4.624;2023-07-09T00:57:08;11.40;;;6.63;;
41631;SDS011;37452;51.938;4.624;2023-07-09T00:59:37;12.18;;;6.55;;
41631;SDS011;37452;51.938;4.624;2023-07-09T01:02:05;12.43;;;6.50;;
41631;SDS011;37452;51.938;4.624;2023-07-09T01:04:32;12.20;;;6.20;;
41631;SDS011;37452;51.938;4.624;2023-07-09T01:06:57;9.35;;;6.85;;
41631;SDS011;37452;51.938;4.624;2023-07-09T01:09:23;14.57;;;7.40;;
41631;SDS011;37452;51.938;4.624;2023-07-09T01:11:50;11.00;;;5.50;;
41631;SDS011;37452;51.938;4.624;2023-07-09T01:14:16;10.32;;;6.13;;
41631;SDS011;37452;51.938;4.624;2023-07-09T01:16:48;12.65;;;7.07;;
41631;SDS011;37452;51.938;4.624;2023-07-09T01:19:22;12.38;;;7.30;;
41631;SDS011;37452;51.938;4.624;2023-07-09T01:21:51;12.02;;;6.97;;
41631;SDS011;37452;51.938;4.624;2023-07-09T01:25:05;13.88;;;6.75;;
41631;SDS011;37452;51.938;4.624;2023-07-09T01:27:22;12.25;;;7.25;;
41631;SDS011;37452;51.938;4.624;2023-07-09T01:29:53;10.13;;;6.50;;
41631;SDS011;37452;51.938;4.624;2023-07-09T01:32:21;10.75;;;6.13;;
41631;SDS011;37452;51.938;4.624;2023-07-09T01:34:47;10.25;;;6.15;;
41631;SDS011;37452;51.938;4.624;2023-07-09T01:37:16;11.50;;;7.07;;
41631;SDS011;37452;51.938;4.624;2023-07-09T01:39:43;11.50;;;6.25;;
41631;SDS011;37452;51.938;4.624;2023-07-09T01:42:08;8.82;;;6.57;;
41631;SDS011;37452;51.938;4.624;2023-07-09T01:44:35;13.38;;;7.10;;
41631;SDS011;37452;51.938;4.624;2023-07-09T01:47:02;13.48;;;8.15;;
41631;SDS011;37452;51.938;4.624;2023-07-09T01:49:29;11.43;;;6.80;;
41631;SDS011;37452;51.938;4.624;2023-07-09T01:51:55;15.45;;;7.80;;
41631;SDS011;37452;51.938;4.624;2023-07-09T01:54:20;15.75;;;8.82;;
41631;SDS011;37452;51.938;4.624;2023-07-09T01:56:45;19.15;;;9.32;;
41631;SDS011;37452;51.938;4.624;2023-07-09T01:59:11;22.08;;;11.13;;
41631;SDS011;37452;51.938;4.624;2023-07-09T02:01:36;16.70;;;8.32;;
41631;SDS011;37452;51.938;4.624;2023-07-09T02:04:02;11.75;;;6.45;;
41631;SDS011;37452;51.938;4.624;2023-07-09T02:06:28;13.05;;;7.70;;
41631;SDS011;37452;51.938;4.624;2023-07-09T02:08:56;9.93;;;6.47;;
41631;SDS011;37452;51.938;4.624;2023-07-09T02:11:23;13.40;;;6.93;;
41631;SDS011;37452;51.938;4.624;2023-07-09T02:13:48;13.65;;;7.88;;
41631;SDS011;37452;51.938;4.624;2023-07-09T02:16:13;16.40;;;8.57;;
41631;SDS011;37452;51.938;4.624;2023-07-09T02:18:39;10.85;;;7.28;;
41631;SDS011;37452;51.938;4.624;2023-07-09T02:21:04;9.80;;;5.10;;
41631;SDS011;37452;51.938;4.624;2023-07-09T02:23:29;7.85;;;5.32;;
41631;SDS011;37452;51.938;4.624;2023-07-09T02:25:55;13.30;;;7.22;;
41631;SDS011;37452;51.938;4.624;2023-07-09T02:28:20;10.73;;;6.60;;
41631;SDS011;37452;51.938;4.624;2023-07-09T02:30:45;11.25;;;6.80;;
41631;SDS011;37452;51.938;4.624;2023-07-09T02:33:11;13.10;;;6.57;;
41631;SDS011;37452;51.938;4.624;2023-07-09T02:35:36;11.88;;;6.40;;
41631;SDS011;37452;51.938;4.624;2023-07-09T02:38:02;14.65;;;7.20;;
41631;SDS011;37452;51.938;4.624;2023-07-09T02:40:28;9.30;;;6.43;;
41631;SDS011;37452;51.938;4.624;2023-07-09T02:42:54;9.10;;;5.72;;
41631;SDS011;37452;51.938;4.624;2023-07-09T02:45:19;12.57;;;6.85;;
41631;SDS011;37452;51.938;4.624;2023-07-09T02:47:45;12.05;;;6.57;;
41631;SDS011;37452;51.938;4.624;2023-07-09T02:50:11;12.45;;;7.38;;
41631;SDS011;37452;51.938;4.624;2023-07-09T02:52:36;11.63;;;6.90;;
41631;SDS011;37452;51.938;4.624;2023-07-09T02:55:01;10.50;;;6.60;;
41631;SDS011;37452;51.938;4.624;2023-07-09T02:57:27;11.07;;;7.68;;
41631;SDS011;37452;51.938;4.624;2023-07-09T02:59:52;8.93;;;5.97;;
41631;SDS011;37452;51.938;4.624;2023-07-09T03:02:18;9.95;;;6.90;;
41631;SDS011;37452;51.938;4.624;2023-07-09T03:04:43;10.13;;;6.78;;
41631;SDS011;37452;51.938;4.624;2023-07-09T03:07:08;10.40;;;6.03;;
41631;SDS011;37452;51.938;4.624;2023-07-09T03:09:34;14.70;;;5.68;;
41631;SDS011;37452;51.938;4.624;2023-07-09T03:11:59;11.15;;;6.70;;
41631;SDS011;37452;51.938;4.624;2023-07-09T03:14:25;15.95;;;8.35;;
41631;SDS011;37452;51.938;4.624;2023-07-09T03:16:50;13.85;;;8.23;;
41631;SDS011;37452;51.938;4.624;2023-07-09T03:19:16;10.68;;;7.72;;
41631;SDS011;37452;51.938;4.624;2023-07-09T03:21:41;14.75;;;7.30;;
41631;SDS011;37452;51.938;4.624;2023-07-09T03:24:06;16.25;;;8.15;;
41631;SDS011;37452;51.938;4.624;2023-07-09T03:26:33;15.48;;;8.10;;
41631;SDS011;37452;51.938;4.624;2023-07-09T03:28:59;13.20;;;9.23;;
41631;SDS011;37452;51.938;4.624;2023-07-09T03:31:24;15.00;;;10.95;;
41631;SDS011;37452;51.938;4.624;2023-07-09T03:33:50;15.23;;;9.25;;
41631;SDS011;37452;51.938;4.624;2023-07-09T03:36:17;18.42;;;10.80;;
41631;SDS011;37452;51.938;4.624;2023-07-09T03:38:44;13.25;;;8.60;;
41631;SDS011;37452;51.938;4.624;2023-07-09T03:41:10;16.92;;;8.82;;
41631;SDS011;37452;51.938;4.624;2023-07-09T03:43:35;11.75;;;8.07;;
41631;SDS011;37452;51.938;4.624;2023-07-09T03:46:01;15.30;;;8.20;;
41631;SDS011;37452;51.938;4.624;2023-07-09T03:48:26;12.02;;;8.25;;
41631;SDS011;37452;51.938;4.624;2023-07-09T03:50:51;13.27;;;8.10;;
41631;SDS011;37452;51.938;4.624;2023-07-09T03:53:17;12.45;;;7.93;;
41631;SDS011;37452;51.938;4.624;2023-07-09T03:55:43;12.23;;;7.40;;
41631;SDS011;37452;51.938;4.624;2023-07-09T03:58:11;11.45;;;7.63;;
41631;SDS011;37452;51.938;4.624;2023-07-09T04:00:36;12.45;;;7.20;;
41631;SDS011;37452;51.938;4.624;2023-07-09T04:03:01;9.57;;;6.50;;
41631;SDS011;37452;51.938;4.624;2023-07-09T04:05:27;14.98;;;6.82;;
41631;SDS011;37452;51.938;4.624;2023-07-09T04:07:53;11.05;;;7.70;;
41631;SDS011;37452;51.938;4.624;2023-07-09T04:10:19;13.85;;;7.35;;
41631;SDS011;37452;51.938;4.624;2023-07-09T04:12:45;13.63;;;7.13;;
41631;SDS011;37452;51.938;4.624;2023-07-09T04:15:10;11.35;;;7.00;;
41631;SDS011;37452;51.938;4.624;2023-07-09T04:17:38;10.20;;;6.78;;
41631;SDS011;37452;51.938;4.624;2023-07-09T04:20:04;11.80;;;7.60;;
41631;SDS011;37452;51.938;4.624;2023-07-09T04:22:34;11.30;;;6.55;;
41631;SDS011;37452;51.938;4.624;2023-07-09T04:25:00;9.10;;;6.30;;
41631;SDS011;37452;51.938;4.624;2023-07-09T04:27:25;10.80;;;7.05;;
41631;SDS011;37452;51.938;4.624;2023-07-09T04:29:53;11.93;;;6.20;;
41631;SDS011;37452;51.938;4.624;2023-07-09T04:32:19;11.82;;;7.45;;
41631;SDS011;37452;51.938;4.624;2023-07-09T04:34:45;10.52;;;7.38;;
41631;SDS011;37452;51.938;4.624;2023-07-09T04:37:11;10.75;;;7.07;;
41631;SDS011;37452;51.938;4.624;2023-07-09T04:39:38;10.88;;;7.30;;
41631;SDS011;37452;51.938;4.624;2023-07-09T04:42:04;10.95;;;7.47;;
41631;SDS011;37452;51.938;4.624;2023-07-09T04:44:31;15.65;;;7.65;;
41631;SDS011;37452;51.938;4.624;2023-07-09T04:46:56;10.27;;;7.45;;
41631;SDS011;37452;51.938;4.624;2023-07-09T04:49:21;11.05;;;7.88;;
41631;SDS011;37452;51.938;4.624;2023-07-09T04:51:47;12.15;;;7.82;;
41631;SDS011;37452;51.938;4.624;2023-07-09T04:54:12;13.43;;;7.15;;
41631;SDS011;37452;51.938;4.624;2023-07-09T04:56:40;13.85;;;8.90;;
41631;SDS011;37452;51.938;4.624;2023-07-09T04:59:06;15.88;;;8.65;;
41631;SDS011;37452;51.938;4.624;2023-07-09T05:01:31;16.33;;;7.97;;
41631;SDS011;37452;51.938;4.624;2023-07-09T05:03:57;10.90;;;8.27;;
41631;SDS011;37452;51.938;4.624;2023-07-09T05:06:22;14.52;;;8.93;;
41631;SDS011;37452;51.938;4.624;2023-07-09T05:08:48;13.48;;;8.90;;
41631;SDS011;37452;51.938;4.624;2023-07-09T05:11:13;9.68;;;8.00;;
41631;SDS011;37452;51.938;4.624;2023-07-09T05:13:39;15.85;;;8.05;;
41631;SDS011;37452;51.938;4.624;2023-07-09T05:16:04;13.85;;;9.40;;
41631;SDS011;37452;51.938;4.624;2023-07-09T05:18:30;16.17;;;8.38;;
41631;SDS011;37452;51.938;4.624;2023-07-09T05:20:55;15.15;;;8.70;;
41631;SDS011;37452;51.938;4.624;2023-07-09T05:23:21;14.98;;;8.65;;
41631;SDS011;37452;51.938;4.624;2023-07-09T05:25:49;11.93;;;7.97;;
41631;SDS011;37452;51.938;4.624;2023-07-09T05:28:15;12.88;;;9.38;;
41631;SDS011;37452;51.938;4.624;2023-07-09T05:30:43;10.77;;;7.97;;
41631;SDS011;37452;51.938;4.624;2023-07-09T05:33:08;14.65;;;9.68;;
41631;SDS011;37452;51.938;4.624;2023-07-09T05:35:34;15.88;;;9.50;;
41631;SDS011;37452;51.938;4.624;2023-07-09T05:37:59;14.85;;;9.18;;
41631;SDS011;37452;51.938;4.624;2023-07-09T05:40:25;12.75;;;8.98;;
41631;SDS011;37452;51.938;4.624;2023-07-09T05:42:50;13.55;;;9.55;;
41631;SDS011;37452;51.938;4.624;2023-07-09T05:45:16;13.98;;;9.50;;
41631;SDS011;37452;51.938;4.624;2023-07-09T05:47:41;16.83;;;9.82;;
41631;SDS011;37452;51.938;4.624;2023-07-09T05:50:06;13.75;;;9.95;;
41631;SDS011;37452;51.938;4.624;2023-07-09T05:52:33;14.13;;;9.27;;
41631;SDS011;37452;51.938;4.624;2023-07-09T05:54:59;15.43;;;8.48;;
41631;SDS011;37452;51.938;4.624;2023-07-09T05:57:24;16.63;;;10.07;;
41631;SDS011;37452;51.938;4.624;2023-07-09T05:59:50;17.00;;;10.65;;
41631;SDS011;37452;51.938;4.624;2023-07-09T06:02:16;14.05;;;9.63;;
41631;SDS011;37452;51.938;4.624;2023-07-09T06:04:44;14.50;;;9.98;;
41631;SDS011;37452;51.938;4.624;2023-07-09T06:07:10;18.00;;;10.98;;
41631;SDS011;37452;51.938;4.624;2023-07-09T06:09:36;19.20;;;11.65;;
41631;SDS011;37452;51.938;4.624;2023-07-09T06:12:02;22.25;;;12.07;;
41631;SDS011;37452;51.938;4.624;2023-07-09T06:14:28;20.75;;;13.35;;
41631;SDS011;37452;51.938;4.624;2023-07-09T06:16:54;23.52;;;13.90;;
41631;SDS011;37452;51.938;4.624;2023-07-09T06:19:19;21.85;;;14.23;;
41631;SDS011;37452;51.938;4.624;2023-07-09T06:21:44;19.63;;;13.27;;
41631;SDS011;37452;51.938;4.624;2023-07-09T06:24:10;22.80;;;14.20;;
41631;SDS011;37452;51.938;4.624;2023-07-09T06:26:36;18.23;;;12.88;;
41631;SDS011;37452;51.938;4.624;2023-07-09T06:29:01;19.73;;;13.52;;
41631;SDS011;37452;51.938;4.624;2023-07-09T06:31:27;20.33;;;12.38;;
41631;SDS011;37452;51.938;4.624;2023-07-09T06:33:52;14.45;;;10.25;;
41631;SDS011;37452;51.938;4.624;2023-07-09T06:36:18;20.63;;;11.65;;
41631;SDS011;37452;51.938;4.624;2023-07-09T06:38:44;17.50;;;10.98;;
41631;SDS011;37452;51.938;4.624;2023-07-09T06:41:09;16.63;;;11.50;;
41631;SDS011;37452;51.938;4.624;2023-07-09T06:43:35;19.65;;;11.52;;
41631;SDS011;37452;51.938;4.624;2023-07-09T06:46:03;18.95;;;12.20;;
41631;SDS011;37452;51.938;4.624;2023-07-09T06:48:30;20.00;;;12.35;;
41631;SDS011;37452;51.938;4.624;2023-07-09T06:50:56;19.23;;;11.63;;
41631;SDS011;37452;51.938;4.624;2023-07-09T06:53:23;20.52;;;11.77;;
41631;SDS011;37452;51.938;4.624;2023-07-09T06:55:50;16.38;;;10.98;;
41631;SDS011;37452;51.938;4.624;2023-07-09T06:58:16;21.33;;;12.90;;
41631;SDS011;37452;51.938;4.624;2023-07-09T07:00:42;19.30;;;12.48;;
41631;SDS011;37452;51.938;4.624;2023-07-09T07:03:08;17.00;;;12.25;;
41631;SDS011;37452;51.938;4.624;2023-07-09T07:05:34;25.45;;;14.80;;
41631;SDS011;37452;51.938;4.624;2023-07-09T07:08:00;20.63;;;14.45;;
41631;SDS011;37452;51.938;4.624;2023-07-09T07:10:27;23.45;;;14.10;;
41631;SDS011;37452;51.938;4.624;2023-07-09T07:12:52;19.48;;;12.90;;
41631;SDS011;37452;51.938;4.624;2023-07-09T07:15:18;16.05;;;11.02;;
41631;SDS011;37452;51.938;4.624;2023-07-09T07:17:44;16.55;;;11.05;;
41631;SDS011;37452;51.938;4.624;2023-07-09T07:20:09;14.27;;;9.43;;
41631;SDS011;37452;51.938;4.624;2023-07-09T07:22:37;15.73;;;8.55;;
41631;SDS011;37452;51.938;4.624;2023-07-09T07:25:03;14.52;;;8.85;;
41631;SDS011;37452;51.938;4.624;2023-07-09T07:27:29;13.07;;;9.15;;
41631;SDS011;37452;51.938;4.624;2023-07-09T07:29:54;11.57;;;8.05;;
41631;SDS011;37452;51.938;4.624;2023-07-09T07:32:20;14.93;;;8.48;;
41631;SDS011;37452;51.938;4.624;2023-07-09T07:34:46;14.40;;;9.25;;
41631;SDS011;37452;51.938;4.624;2023-07-09T07:37:12;15.23;;;9.63;;
41631;SDS011;37452;51.938;4.624;2023-07-09T07:39:38;14.07;;;9.77;;
41631;SDS011;37452;51.938;4.624;2023-07-09T07:42:03;16.13;;;10.85;;
41631;SDS011;37452;51.938;4.624;2023-07-09T07:44:29;18.55;;;11.57;;
41631;SDS011;37452;51.938;4.624;2023-07-09T07:46:55;16.50;;;10.98;;
41631;SDS011;37452;51.938;4.624;2023-07-09T07:49:20;15.02;;;9.25;;
41631;SDS011;37452;51.938;4.624;2023-07-09T07:51:45;16.30;;;8.07;;
41631;SDS011;37452;51.938;4.624;2023-07-09T07:54:11;16.27;;;8.15;;
41631;SDS011;37452;51.938;4.624;2023-07-09T07:56:37;14.43;;;8.85;;
41631;SDS011;37452;51.938;4.624;2023-07-09T07:59:02;14.75;;;8.60;;
41631;SDS011;37452;51.938;4.624;2023-07-09T08:01:28;13.90;;;8.25;;
41631;SDS011;37452;51.938;4.624;2023-07-09T08:03:54;13.65;;;7.80;;
41631;SDS011;37452;51.938;4.624;2023-07-09T08:06:19;12.75;;;8.43;;
41631;SDS011;37452;51.938;4.624;2023-07-09T08:08:45;13.85;;;8.43;;
41631;SDS011;37452;51.938;4.624;2023-07-09T08:11:10;14.10;;;7.70;;
41631;SDS011;37452;51.938;4.624;2023-07-09T08:13:37;15.20;;;6.90;;
41631;SDS011;37452;51.938;4.624;2023-07-09T08:16:03;10.80;;;6.22;;
41631;SDS011;37452;51.938;4.624;2023-07-09T08:18:30;10.18;;;6.10;;
41631;SDS011;37452;51.938;4.624;2023-07-09T08:20:55;11.15;;;6.00;;
41631;SDS011;37452;51.938;4.624;2023-07-09T08:23:21;8.00;;;4.78;;
41631;SDS011;37452;51.938;4.624;2023-07-09T08:25:53;9.52;;;4.57;;
41631;SDS011;37452;51.938;4.624;2023-07-09T08:28:19;9.43;;;4.95;;
41631;SDS011;37452;51.938;4.624;2023-07-09T08:30:44;9.77;;;5.13;;
41631;SDS011;37452;51.938;4.624;2023-07-09T08:33:10;10.95;;;5.72;;
41631;SDS011;37452;51.938;4.624;2023-07-09T08:35:35;9.05;;;4.97;;
41631;SDS011;37452;51.938;4.624;2023-07-09T08:38:00;10.00;;;5.32;;
41631;SDS011;37452;51.938;4.624;2023-07-09T08:40:26;7.78;;;4.95;;
41631;SDS011;37452;51.938;4.624;2023-07-09T08:42:53;10.38;;;4.70;;
41631;SDS011;37452;51.938;4.624;2023-07-09T08:50:59;7.88;;;4.38;;
41631;SDS011;37452;51.938;4.624;2023-07-09T08:53:34;10.95;;;4.35;;
41631;SDS011;37452;51.938;4.624;2023-07-09T08:56:04;7.25;;;4.03;;
41631;SDS011;37452;51.938;4.624;2023-07-09T08:58:34;8.85;;;5.05;;
41631;SDS011;37452;51.938;4.624;2023-07-09T09:01:02;7.18;;;3.95;;
41631;SDS011;37452;51.938;4.624;2023-07-09T09:06:12;6.43;;;4.00;;
41631;SDS011;37452;51.938;4.624;2023-07-09T09:08:41;10.32;;;4.20;;
41631;SDS011;37452;51.938;4.624;2023-07-09T09:14:13;6.10;;;4.10;;
41631;SDS011;37452;51.938;4.624;2023-07-09T09:16:41;7.47;;;4.10;;
41631;SDS011;37452;51.938;4.624;2023-07-09T09:19:27;7.38;;;4.25;;
41631;SDS011;37452;51.938;4.624;2023-07-09T09:22:12;7.15;;;4.10;;
41631;SDS011;37452;51.938;4.624;2023-07-09T09:24:46;10.35;;;3.85;;
41631;SDS011;37452;51.938;4.624;2023-07-09T09:27:16;7.93;;;4.20;;
41631;SDS011;37452;51.938;4.624;2023-07-09T09:29:41;8.23;;;3.95;;
41631;SDS011;37452;51.938;4.624;2023-07-09T09:32:18;7.15;;;4.18;;
41631;SDS011;37452;51.938;4.624;2023-07-09T09:34:47;7.90;;;4.50;;
41631;SDS011;37452;51.938;4.624;2023-07-09T09:37:15;9.75;;;4.10;;
41631;SDS011;37452;51.938;4.624;2023-07-09T09:39:50;6.97;;;4.00;;
41631;SDS011;37452;51.938;4.624;2023-07-09T09:42:16;11.75;;;4.88;;
41631;SDS011;37452;51.938;4.624;2023-07-09T09:44:45;6.40;;;3.90;;
41631;SDS011;37452;51.938;4.624;2023-07-09T09:47:11;8.52;;;4.35;;
41631;SDS011;37452;51.938;4.624;2023-07-09T09:49:43;7.38;;;4.40;;
41631;SDS011;37452;51.938;4.624;2023-07-09T09:52:13;9.63;;;4.25;;
41631;SDS011;37452;51.938;4.624;2023-07-09T09:54:41;6.95;;;4.25;;
41631;SDS011;37452;51.938;4.624;2023-07-09T09:57:15;8.80;;;4.70;;
41631;SDS011;37452;51.938;4.624;2023-07-09T09:59:45;10.77;;;4.53;;
41631;SDS011;37452;51.938;4.624;2023-07-09T10:02:21;8.88;;;4.20;;
41631;SDS011;37452;51.938;4.624;2023-07-09T10:04:48;8.93;;;4.78;;
41631;SDS011;37452;51.938;4.624;2023-07-09T10:09:52;8.30;;;4.20;;
41631;SDS011;37452;51.938;4.624;2023-07-09T10:15:01;6.25;;;3.53;;
41631;SDS011;37452;51.938;4.624;2023-07-09T10:17:37;4.70;;;3.45;;
41631;SDS011;37452;51.938;4.624;2023-07-09T10:33:08;6.55;;;3.55;;
41631;SDS011;37452;51.938;4.624;2023-07-09T10:35:50;6.10;;;3.65;;
41631;SDS011;37452;51.938;4.624;2023-07-09T10:41:24;6.70;;;4.22;;
41631;SDS011;37452;51.938;4.624;2023-07-09T10:44:08;8.85;;;4.55;;
41631;SDS011;37452;51.938;4.624;2023-07-09T10:49:16;10.45;;;4.82;;
41631;SDS011;37452;51.938;4.624;2023-07-09T10:51:44;8.20;;;4.90;;
41631;SDS011;37452;51.938;4.624;2023-07-09T10:57:09;8.70;;;5.03;;
41631;SDS011;37452;51.938;4.624;2023-07-09T10:59:41;8.80;;;4.57;;
41631;SDS011;37452;51.938;4.624;2023-07-09T11:02:27;5.97;;;2.78;;
41631;SDS011;37452;51.938;4.624;2023-07-09T11:04:57;3.92;;;2.53;;
41631;SDS011;37452;51.938;4.624;2023-07-09T11:09:57;7.70;;;2.85;;
41631;SDS011;37452;51.938;4.624;2023-07-09T11:12:26;5.57;;;2.63;;
41631;SDS011;37452;51.938;4.624;2023-07-09T11:15:03;5.60;;;2.77;;
41631;SDS011;37452;51.938;4.624;2023-07-09T11:17:33;8.23;;;3.17;;
41631;SDS011;37452;51.938;4.624;2023-07-09T11:20:08;6.20;;;2.78;;
41631;SDS011;37452;51.938;4.624;2023-07-09T11:22:50;7.40;;;3.25;;
41631;SDS011;37452;51.938;4.624;2023-07-09T11:25:26;5.95;;;3.40;;
41631;SDS011;37452;51.938;4.624;2023-07-09T11:28:02;5.32;;;3.17;;
41631;SDS011;37452;51.938;4.624;2023-07-09T11:30:29;5.35;;;3.33;;
41631;SDS011;37452;51.938;4.624;2023-07-09T11:33:00;6.32;;;3.70;;
41631;SDS011;37452;51.938;4.624;2023-07-09T11:35:28;5.78;;;3.53;;
41631;SDS011;37452;51.938;4.624;2023-07-09T11:37:54;6.05;;;3.45;;
41631;SDS011;37452;51.938;4.624;2023-07-09T11:40:22;6.85;;;3.50;;
41631;SDS011;37452;51.938;4.624;2023-07-09T11:45:22;5.68;;;2.53;;
41631;SDS011;37452;51.938;4.624;2023-07-09T11:50:27;4.38;;;2.42;;
41631;SDS011;37452;51.938;4.624;2023-07-09T11:53:04;5.93;;;2.67;;
41631;SDS011;37452;51.938;4.624;2023-07-09T11:55:44;4.20;;;2.30;;
41631;SDS011;37452;51.938;4.624;2023-07-09T11:58:13;6.32;;;3.20;;
41631;SDS011;37452;51.938;4.624;2023-07-09T12:00:43;6.63;;;3.10;;
41631;SDS011;37452;51.938;4.624;2023-07-09T12:03:19;9.02;;;3.20;;
41631;SDS011;37452;51.938;4.624;2023-07-09T12:05:49;5.78;;;2.53;;
41631;SDS011;37452;51.938;4.624;2023-07-09T12:08:28;4.40;;;2.60;;
41631;SDS011;37452;51.938;4.624;2023-07-09T12:10:55;4.88;;;2.80;;
41631;SDS011;37452;51.938;4.624;2023-07-09T12:13:20;5.97;;;2.97;;
41631;SDS011;37452;51.938;4.624;2023-07-09T12:15:45;4.78;;;2.40;;
41631;SDS011;37452;51.938;4.624;2023-07-09T12:18:12;4.00;;;1.80;;
41631;SDS011;37452;51.938;4.624;2023-07-09T12:20:39;4.38;;;1.77;;
41631;SDS011;37452;51.938;4.624;2023-07-09T12:23:25;4.15;;;1.70;;
41631;SDS011;37452;51.938;4.624;2023-07-09T12:25:53;5.55;;;2.05;;
41631;SDS011;37452;51.938;4.624;2023-07-09T12:28:19;3.33;;;1.80;;
41631;SDS011;37452;51.938;4.624;2023-07-09T12:30:50;6.20;;;2.15;;
41631;SDS011;37452;51.938;4.624;2023-07-09T12:33:34;4.28;;;2.05;;
41631;SDS011;37452;51.938;4.624;2023-07-09T12:36:00;4.82;;;2.13;;
41631;SDS011;37452;51.938;4.624;2023-07-09T12:38:30;4.28;;;2.10;;
41631;SDS011;37452;51.938;4.624;2023-07-09T12:45:57;4.53;;;2.03;;
41631;SDS011;37452;51.938;4.624;2023-07-09T12:48:25;8.48;;;2.75;;
41631;SDS011;37452;51.938;4.624;2023-07-09T12:50:54;6.50;;;2.80;;
41631;SDS011;37452;51.938;4.624;2023-07-09T12:53:23;7.53;;;2.50;;
41631;SDS011;37452;51.938;4.624;2023-07-09T12:55:51;5.68;;;2.58;;
41631;SDS011;37452;51.938;4.624;2023-07-09T12:58:20;5.80;;;2.20;;
41631;SDS011;37452;51.938;4.624;2023-07-09T13:00:48;6.15;;;2.47;;
41631;SDS011;37452;51.938;4.624;2023-07-09T13:03:16;10.07;;;3.10;;
41631;SDS011;37452;51.938;4.624;2023-07-09T13:08:54;7.47;;;2.80;;
41631;SDS011;37452;51.938;4.624;2023-07-09T13:11:24;5.80;;;2.80;;
41631;SDS011;37452;51.938;4.624;2023-07-09T13:13:57;18.60;;;3.10;;
41631;SDS011;37452;51.938;4.624;2023-07-09T13:16:24;8.20;;;2.28;;
41631;SDS011;37452;51.938;4.624;2023-07-09T13:18:50;7.60;;;2.40;;
41631;SDS011;37452;51.938;4.624;2023-07-09T13:21:17;9.40;;;2.47;;
41631;SDS011;37452;51.938;4.624;2023-07-09T13:23:43;6.00;;;2.40;;
41631;SDS011;37452;51.938;4.624;2023-07-09T13:26:08;9.65;;;2.80;;
41631;SDS011;37452;51.938;4.624;2023-07-09T13:28:34;10.93;;;3.45;;
41631;SDS011;37452;51.938;4.624;2023-07-09T13:31:00;11.27;;;3.22;;
41631;SDS011;37452;51.938;4.624;2023-07-09T13:33:35;6.43;;;2.83;;
41631;SDS011;37452;51.938;4.624;2023-07-09T13:36:02;7.22;;;2.83;;
41631;SDS011;37452;51.938;4.624;2023-07-09T13:38:28;8.07;;;3.17;;
41631;SDS011;37452;51.938;4.624;2023-07-09T13:40:54;8.15;;;3.42;;
41631;SDS011;37452;51.938;4.624;2023-07-09T13:43:29;12.25;;;4.00;;
41631;SDS011;37452;51.938;4.624;2023-07-09T13:45:56;11.13;;;3.47;;
41631;SDS011;37452;51.938;4.624;2023-07-09T13:48:22;11.35;;;4.38;;
41631;SDS011;37452;51.938;4.624;2023-07-09T13:50:49;9.55;;;3.90;;
41631;SDS011;37452;51.938;4.624;2023-07-09T13:53:17;8.98;;;4.40;;
41631;SDS011;37452;51.938;4.624;2023-07-09T13:55:45;6.60;;;3.88;;
41631;SDS011;37452;51.938;4.624;2023-07-09T13:58:11;9.18;;;4.10;;
41631;SDS011;37452;51.938;4.624;2023-07-09T14:00:39;10.95;;;4.35;;
41631;SDS011;37452;51.938;4.624;2023-07-09T14:03:19;8.85;;;3.95;;
41631;SDS011;37452;51.938;4.624;2023-07-09T14:05:46;8.70;;;3.80;;
41631;SDS011;37452;51.938;4.624;2023-07-09T14:08:12;7.70;;;4.68;;
41631;SDS011;37452;51.938;4.624;2023-07-09T14:10:38;8.50;;;4.03;;
41631;SDS011;37452;51.938;4.624;2023-07-09T14:13:03;6.20;;;3.47;;
41631;SDS011;37452;51.938;4.624;2023-07-09T14:15:30;11.13;;;4.32;;
41631;SDS011;37452;51.938;4.624;2023-07-09T14:17:55;12.88;;;4.22;;
41631;SDS011;37452;51.938;4.624;2023-07-09T14:20:21;13.27;;;4.60;;
41631;SDS011;37452;51.938;4.624;2023-07-09T14:22:47;14.05;;;4.88;;
41631;SDS011;37452;51.938;4.624;2023-07-09T14:25:24;13.00;;;5.07;;
41631;SDS011;37452;51.938;4.624;2023-07-09T14:27:50;14.88;;;5.70;;
41631;SDS011;37452;51.938;4.624;2023-07-09T14:30:18;10.98;;;5.03;;
41631;SDS011;37452;51.938;4.624;2023-07-09T14:32:46;13.73;;;5.20;;
41631;SDS011;37452;51.938;4.624;2023-07-09T14:35:16;13.15;;;5.60;;
41631;SDS011;37452;51.938;4.624;2023-07-09T14:37:44;14.82;;;5.78;;
41631;SDS011;37452;51.938;4.624;2023-07-09T14:40:11;12.23;;;5.07;;
41631;SDS011;37452;51.938;4.624;2023-07-09T14:42:38;9.25;;;4.07;;
41631;SDS011;37452;51.938;4.624;2023-07-09T14:45:25;11.15;;;4.63;;
41631;SDS011;37452;51.938;4.624;2023-07-09T14:50:17;9.75;;;4.03;;
41631;SDS011;37452;51.938;4.624;2023-07-09T14:52:43;9.52;;;4.55;;
41631;SDS011;37452;51.938;4.624;2023-07-09T14:55:17;6.80;;;3.63;;
41631;SDS011;37452;51.938;4.624;2023-07-09T14:57:49;9.27;;;3.80;;
41631;SDS011;37452;51.938;4.624;2023-07-09T15:02:40;6.80;;;3.45;;
41631;SDS011;37452;51.938;4.624;2023-07-09T15:05:11;7.90;;;3.38;;
41631;SDS011;37452;51.938;4.624;2023-07-09T15:07:39;7.82;;;3.88;;
41631;SDS011;37452;51.938;4.624;2023-07-09T15:10:05;8.48;;;4.03;;
41631;SDS011;37452;51.938;4.624;2023-07-09T15:12:33;8.52;;;3.95;;
41631;SDS011;37452;51.938;4.624;2023-07-09T15:15:18;7.55;;;4.20;;
41631;SDS011;37452;51.938;4.624;2023-07-09T15:17:48;8.70;;;4.07;;
41631;SDS011;37452;51.938;4.624;2023-07-09T15:20:17;10.27;;;4.78;;
41631;SDS011;37452;51.938;4.624;2023-07-09T15:22:44;7.20;;;4.00;;
41631;SDS011;37452;51.938;4.624;2023-07-09T15:25:15;6.75;;;4.15;;
41631;SDS011;37452;51.938;4.624;2023-07-09T15:27:44;6.72;;;4.30;;
41631;SDS011;37452;51.938;4.624;2023-07-09T15:30:17;8.38;;;3.67;;
41631;SDS011;37452;51.938;4.624;2023-07-09T15:32:44;9.30;;;3.40;;
41631;SDS011;37452;51.938;4.624;2023-07-09T15:35:11;7.35;;;3.45;;
41631;SDS011;37452;51.938;4.624;2023-07-09T15:37:37;4.72;;;2.60;;
41631;SDS011;37452;51.938;4.624;2023-07-09T15:40:03;8.25;;;3.42;;
41631;SDS011;37452;51.938;4.624;2023-07-09T15:42:38;8.43;;;4.00;;
41631;SDS011;37452;51.938;4.624;2023-07-09T15:45:03;6.00;;;3.28;;